Terminal Aerodrome Forecast
Issued by NWS Duluth, MN

Home | Current Version | Previous Version | Text Only | Print | Product List | Glossary On
Versions: 1 2 3 4 5 6 7 8 9 10 11 12 13 14 15 16 17 18 19
000
FTUS43 KDLH 220800 AAA
TAFDLH
TAF AMD
KDLH 220857Z 2209/2306 32013G19KT P6SM -SN OVC025
     FM221500 32015G27KT P6SM BKN035 OVC080
     FM230400 32011G17KT P6SM BKN040=

USA.gov is the U.S. government's official web portal to all federal, state and local government web resources and services.